Warehouse Point, Connecticut
Current Conditions -  °F | °C
As of 12:44 AM on Thursday 23 Oct 2014 (Local Time) from KBDL Reporting Station
Light Rain Light Rain  
Wind Chill: 50°   Ceiling: 1300
Heat Index: 50°   Visibility: 9mi
Dew Point: 46°   Wind: 17mph
Humidity: 86%   Direction: 10°N
Pressure: 29.79"   Gusts: 28mph
Location:  41.9062°N, 72.5958°W
Report Text: KBDL 230444Z 01015G24KT 9SM -RA BKN013 OVC023 10/08 A2979 RMK AO2 P0005 T01000078
Loading
Personal Weather Stations






























Interactive Weather Map
Tropical Storm Tracking
New forecast layout! Learn more

10-Day Weather Forecast

Advertisements
Track Severe Weather on mobile